Morgantown Municipal Walter L. Bill Hart Field
KMGW : now visible

Airfield :











YOU CAN JOIN US ON...

 
LOGIN :

Register | Disclaimer

   EN    FR    IT 

 









Legend :    VFR   Marginal VFR   IFR   Intensive IFR   Very Intensive IFR
Visi :
Ceiling :
>= 8 km
>= 3000ft
5 to 8 km
1000 to 3000 ft
1500m to 5 km
500 to 1000 ft
800 to 1500m
200 to 500 ft
< 800m
< 200 ft
Symbols :   Thunderstorms  Fog  Heavy snow  Heavy precipitations  Wind > 20 kt






- Airport Elevation : 1248 ft
- IATA code : MGW


KMGW - Morgantown Municipal Walter L. Bill Hart Field

CURRENT METAR :
  • 230553Z AUTO 24003KT 3SM -RA BR BKN004 OVC009 10/09 A3000 RMK AO2 RAB06 CIG 002V006 SLP160 P0003 60012 T01000089 10111 20100 56006

EXPIRED METARs :
  • 230533Z AUTO 00000KT 2 1/2SM -RA BR OVC003 10/09 A3000 RMK AO2 RAB06 CIG 002V007 P0002 T01000089
  • 230514Z AUTO 00000KT 2 1/2SM -RA BR BKN005 OVC015 10/09 A3000 RMK AO2 RAB06 CIG 003V009 P0001 T01000089
  • 230503Z AUTO 00000KT 4SM BR BKN005 OVC013 10/09 A3001 RMK AO2 CIG 003V008 T01000089
  • 230453Z AUTO 20003KT 5SM BR SCT004 OVC015 10/09 A3001 RMK AO2 RAB01E28B37E50 SLP163 P0003 T01000089 401280100
  • 230431Z AUTO 00000KT 4SM BR SCT004 BKN016 OVC022 11/09 A3001 RMK AO2 RAB01E28 P0003 T01060089
  • 230426Z AUTO VRB03KT 4SM -RA BR BKN004 BKN010 OVC021 11/09 A3001 RMK AO2 RAB01 P0002 T01060089
  • 230419Z AUTO 24003KT 2 1/2SM -RA BR BKN004 BKN010 OVC021 11/09 A3001 RMK AO2 RAB01 P0002 T01060089
  • 230353Z AUTO 20003KT 5SM BR SCT002 OVC022 11/09 A3002 RMK AO2 RAE48 SLP165 P0003 T01060094
  • 230351Z AUTO 21003KT 6SM BR SCT002 OVC022 11/09 A3002 RMK AO2 RAE48 P0003
  • 230314Z AUTO 00000KT 3SM -RA BR BKN003 BKN009 OVC028 11/09 A3003 RMK AO2 P0002 T01060094

TAF KMGW
Valid from the 23 at 06:00 until the 24 at 06:00 UTC


230530Z 2306/2406 24004KT 4SM -SHRA BR OVC005
FM231400 24005KT P6SM VCSH OVC009
FM231600 25008KT P6SM BKN015
FM232100 25005KT P6SM BKN035
KZOB FIR / North America



MET'MAP, your aeronautical weather chart ! - Copyright ORBIFLY December 2007 - Disclaimer

ORBIFLY MET'MAP TEAM :

Programming & Development : Alexandra Zaïnal
Concept & original design : Baudouin d'Aumeries
Assistance for programming : Marc-Olivier Méhu
Technical & hardware support : Manuel Goepfert

Contact : metmap@orbifly.com




SOURCES & CREDITS :

   NOAA       Earth
Advisory